sensor_id;sensor_type;location;lat;lon;timestamp;P1;durP1;ratioP1;P2;durP2;ratioP2
82296;SDS011;71899;51.992;8.648;2024-01-15T00:00:13;46.85;;;21.77;;
82296;SDS011;71899;51.992;8.648;2024-01-15T00:02:38;47.05;;;19.85;;
82296;SDS011;71899;51.992;8.648;2024-01-15T00:05:04;44.55;;;18.40;;
82296;SDS011;71899;51.992;8.648;2024-01-15T00:07:29;47.72;;;21.83;;
82296;SDS011;71899;51.992;8.648;2024-01-15T00:09:55;59.55;;;20.30;;
82296;SDS011;71899;51.992;8.648;2024-01-15T00:12:20;46.35;;;20.35;;
82296;SDS011;71899;51.992;8.648;2024-01-15T00:14:45;39.33;;;19.08;;
82296;SDS011;71899;51.992;8.648;2024-01-15T00:17:11;44.85;;;20.05;;
82296;SDS011;71899;51.992;8.648;2024-01-15T00:19:36;38.45;;;18.52;;
82296;SDS011;71899;51.992;8.648;2024-01-15T00:22:01;43.17;;;19.63;;
82296;SDS011;71899;51.992;8.648;2024-01-15T00:24:27;39.38;;;17.00;;
82296;SDS011;71899;51.992;8.648;2024-01-15T00:26:52;46.28;;;19.15;;
82296;SDS011;71899;51.992;8.648;2024-01-15T00:29:18;53.90;;;23.27;;
82296;SDS011;71899;51.992;8.648;2024-01-15T00:31:44;49.28;;;20.42;;
82296;SDS011;71899;51.992;8.648;2024-01-15T00:34:09;56.10;;;24.13;;
82296;SDS011;71899;51.992;8.648;2024-01-15T00:36:35;48.42;;;20.85;;
82296;SDS011;71899;51.992;8.648;2024-01-15T00:39:00;48.95;;;22.67;;
82296;SDS011;71899;51.992;8.648;2024-01-15T00:41:26;42.22;;;19.13;;
82296;SDS011;71899;51.992;8.648;2024-01-15T00:43:52;35.17;;;16.27;;
82296;SDS011;71899;51.992;8.648;2024-01-15T00:46:18;37.88;;;18.33;;
82296;SDS011;71899;51.992;8.648;2024-01-15T00:48:43;39.67;;;15.88;;
82296;SDS011;71899;51.992;8.648;2024-01-15T00:51:08;30.73;;;13.45;;
82296;SDS011;71899;51.992;8.648;2024-01-15T00:53:34;36.67;;;15.70;;
82296;SDS011;71899;51.992;8.648;2024-01-15T00:55:59;30.80;;;14.48;;
82296;SDS011;71899;51.992;8.648;2024-01-15T00:58:25;29.63;;;13.30;;
82296;SDS011;71899;51.992;8.648;2024-01-15T01:00:51;28.63;;;13.30;;
82296;SDS011;71899;51.992;8.648;2024-01-15T01:03:16;22.95;;;11.30;;
82296;SDS011;71899;51.992;8.648;2024-01-15T01:05:42;21.38;;;11.75;;
82296;SDS011;71899;51.992;8.648;2024-01-15T01:08:08;22.42;;;10.98;;
82296;SDS011;71899;51.992;8.648;2024-01-15T01:10:33;29.58;;;14.02;;
82296;SDS011;71899;51.992;8.648;2024-01-15T01:12:58;28.65;;;12.60;;
82296;SDS011;71899;51.992;8.648;2024-01-15T01:15:24;24.80;;;9.23;;
82296;SDS011;71899;51.992;8.648;2024-01-15T01:17:49;29.38;;;12.82;;
82296;SDS011;71899;51.992;8.648;2024-01-15T01:20:15;21.02;;;11.32;;
82296;SDS011;71899;51.992;8.648;2024-01-15T01:22:40;22.63;;;12.13;;
82296;SDS011;71899;51.992;8.648;2024-01-15T01:25:06;24.88;;;10.15;;
82296;SDS011;71899;51.992;8.648;2024-01-15T01:27:32;28.45;;;12.32;;
82296;SDS011;71899;51.992;8.648;2024-01-15T01:29:57;26.20;;;10.77;;
82296;SDS011;71899;51.992;8.648;2024-01-15T01:32:23;28.40;;;11.05;;
82296;SDS011;71899;51.992;8.648;2024-01-15T01:34:48;24.35;;;11.68;;
82296;SDS011;71899;51.992;8.648;2024-01-15T01:37:13;30.48;;;11.05;;
82296;SDS011;71899;51.992;8.648;2024-01-15T01:39:39;25.05;;;12.40;;
82296;SDS011;71899;51.992;8.648;2024-01-15T01:42:05;20.75;;;10.05;;
82296;SDS011;71899;51.992;8.648;2024-01-15T01:44:30;18.63;;;7.13;;
82296;SDS011;71899;51.992;8.648;2024-01-15T01:46:57;20.40;;;8.57;;
82296;SDS011;71899;51.992;8.648;2024-01-15T01:49:23;19.65;;;9.68;;
82296;SDS011;71899;51.992;8.648;2024-01-15T01:51:49;13.90;;;7.53;;
82296;SDS011;71899;51.992;8.648;2024-01-15T01:54:15;26.00;;;7.93;;
82296;SDS011;71899;51.992;8.648;2024-01-15T01:56:41;11.73;;;6.68;;
82296;SDS011;71899;51.992;8.648;2024-01-15T01:59:07;20.35;;;8.15;;
82296;SDS011;71899;51.992;8.648;2024-01-15T02:01:34;14.88;;;7.63;;
82296;SDS011;71899;51.992;8.648;2024-01-15T02:04:00;20.10;;;8.52;;
82296;SDS011;71899;51.992;8.648;2024-01-15T02:06:26;13.63;;;8.30;;
82296;SDS011;71899;51.992;8.648;2024-01-15T02:08:52;14.48;;;7.93;;
82296;SDS011;71899;51.992;8.648;2024-01-15T02:11:17;18.08;;;8.60;;
82296;SDS011;71899;51.992;8.648;2024-01-15T02:13:42;15.18;;;8.43;;
82296;SDS011;71899;51.992;8.648;2024-01-15T02:16:08;19.20;;;10.32;;
82296;SDS011;71899;51.992;8.648;2024-01-15T02:18:42;23.05;;;10.20;;
82296;SDS011;71899;51.992;8.648;2024-01-15T02:21:09;18.67;;;7.63;;
82296;SDS011;71899;51.992;8.648;2024-01-15T02:23:35;23.25;;;9.75;;
82296;SDS011;71899;51.992;8.648;2024-01-15T02:26:02;19.52;;;8.45;;
82296;SDS011;71899;51.992;8.648;2024-01-15T02:28:28;29.95;;;11.10;;
82296;SDS011;71899;51.992;8.648;2024-01-15T02:30:54;14.88;;;8.52;;
82296;SDS011;71899;51.992;8.648;2024-01-15T02:33:19;23.10;;;10.55;;
82296;SDS011;71899;51.992;8.648;2024-01-15T02:35:44;23.63;;;9.98;;
82296;SDS011;71899;51.992;8.648;2024-01-15T02:38:11;21.17;;;8.13;;
82296;SDS011;71899;51.992;8.648;2024-01-15T02:40:38;20.77;;;7.50;;
82296;SDS011;71899;51.992;8.648;2024-01-15T02:43:04;19.33;;;10.05;;
82296;SDS011;71899;51.992;8.648;2024-01-15T02:45:29;23.92;;;9.13;;
82296;SDS011;71899;51.992;8.648;2024-01-15T02:47:55;19.80;;;9.82;;
82296;SDS011;71899;51.992;8.648;2024-01-15T02:50:20;16.10;;;6.85;;
82296;SDS011;71899;51.992;8.648;2024-01-15T02:52:45;23.73;;;10.57;;
82296;SDS011;71899;51.992;8.648;2024-01-15T02:55:11;20.60;;;8.75;;
82296;SDS011;71899;51.992;8.648;2024-01-15T02:57:36;22.05;;;11.63;;
82296;SDS011;71899;51.992;8.648;2024-01-15T03:00:02;20.15;;;9.38;;
82296;SDS011;71899;51.992;8.648;2024-01-15T03:02:28;17.38;;;9.88;;
82296;SDS011;71899;51.992;8.648;2024-01-15T03:04:54;23.75;;;10.73;;
82296;SDS011;71899;51.992;8.648;2024-01-15T03:07:19;16.63;;;8.77;;
82296;SDS011;71899;51.992;8.648;2024-01-15T03:09:44;16.25;;;8.85;;
82296;SDS011;71899;51.992;8.648;2024-01-15T03:12:10;23.50;;;8.98;;
82296;SDS011;71899;51.992;8.648;2024-01-15T03:14:36;23.23;;;8.90;;
82296;SDS011;71899;51.992;8.648;2024-01-15T03:17:01;17.05;;;9.07;;
82296;SDS011;71899;51.992;8.648;2024-01-15T03:19:27;16.55;;;8.95;;
82296;SDS011;71899;51.992;8.648;2024-01-15T03:21:52;19.02;;;8.27;;
82296;SDS011;71899;51.992;8.648;2024-01-15T03:24:17;15.73;;;7.82;;
82296;SDS011;71899;51.992;8.648;2024-01-15T03:26:43;23.35;;;10.30;;
82296;SDS011;71899;51.992;8.648;2024-01-15T03:29:08;18.98;;;9.32;;
82296;SDS011;71899;51.992;8.648;2024-01-15T03:31:33;23.27;;;11.30;;
82296;SDS011;71899;51.992;8.648;2024-01-15T03:33:58;21.75;;;9.20;;
82296;SDS011;71899;51.992;8.648;2024-01-15T03:36:24;26.75;;;11.25;;
82296;SDS011;71899;51.992;8.648;2024-01-15T03:38:49;25.27;;;10.80;;
82296;SDS011;71899;51.992;8.648;2024-01-15T03:41:14;21.50;;;10.15;;
82296;SDS011;71899;51.992;8.648;2024-01-15T03:43:40;27.40;;;9.35;;
82296;SDS011;71899;51.992;8.648;2024-01-15T03:46:05;23.10;;;12.15;;
82296;SDS011;71899;51.992;8.648;2024-01-15T03:48:31;30.45;;;11.07;;
82296;SDS011;71899;51.992;8.648;2024-01-15T03:50:57;28.30;;;12.30;;
82296;SDS011;71899;51.992;8.648;2024-01-15T03:53:22;24.35;;;9.98;;
82296;SDS011;71899;51.992;8.648;2024-01-15T03:55:48;21.83;;;10.05;;
82296;SDS011;71899;51.992;8.648;2024-01-15T03:58:14;29.85;;;11.70;;
82296;SDS011;71899;51.992;8.648;2024-01-15T04:00:40;25.42;;;9.70;;
82296;SDS011;71899;51.992;8.648;2024-01-15T04:03:05;32.60;;;10.70;;
82296;SDS011;71899;51.992;8.648;2024-01-15T04:05:31;22.83;;;10.65;;
82296;SDS011;71899;51.992;8.648;2024-01-15T04:07:56;19.67;;;7.75;;
82296;SDS011;71899;51.992;8.648;2024-01-15T04:10:21;27.67;;;8.65;;
82296;SDS011;71899;51.992;8.648;2024-01-15T04:12:47;24.35;;;10.23;;
82296;SDS011;71899;51.992;8.648;2024-01-15T04:15:12;21.40;;;9.63;;
82296;SDS011;71899;51.992;8.648;2024-01-15T04:17:38;24.58;;;10.43;;
82296;SDS011;71899;51.992;8.648;2024-01-15T04:20:03;20.02;;;8.93;;
82296;SDS011;71899;51.992;8.648;2024-01-15T04:22:29;22.05;;;9.85;;
82296;SDS011;71899;51.992;8.648;2024-01-15T04:24:54;18.42;;;7.57;;
82296;SDS011;71899;51.992;8.648;2024-01-15T04:27:20;22.30;;;9.48;;
82296;SDS011;71899;51.992;8.648;2024-01-15T04:29:45;26.88;;;9.52;;
82296;SDS011;71899;51.992;8.648;2024-01-15T04:32:10;21.83;;;10.75;;
82296;SDS011;71899;51.992;8.648;2024-01-15T04:34:36;31.67;;;12.25;;
82296;SDS011;71899;51.992;8.648;2024-01-15T04:37:01;17.33;;;8.20;;
82296;SDS011;71899;51.992;8.648;2024-01-15T04:39:27;23.00;;;9.50;;
82296;SDS011;71899;51.992;8.648;2024-01-15T04:41:52;17.92;;;8.63;;
82296;SDS011;71899;51.992;8.648;2024-01-15T04:44:18;24.88;;;10.20;;
82296;SDS011;71899;51.992;8.648;2024-01-15T04:46:43;41.78;;;10.02;;
82296;SDS011;71899;51.992;8.648;2024-01-15T04:49:09;22.45;;;10.55;;
82296;SDS011;71899;51.992;8.648;2024-01-15T04:51:34;22.70;;;7.85;;
82296;SDS011;71899;51.992;8.648;2024-01-15T04:54:00;22.60;;;10.63;;
82296;SDS011;71899;51.992;8.648;2024-01-15T04:56:25;24.02;;;7.72;;
82296;SDS011;71899;51.992;8.648;2024-01-15T04:58:51;18.35;;;8.52;;
82296;SDS011;71899;51.992;8.648;2024-01-15T05:01:16;22.55;;;8.45;;
82296;SDS011;71899;51.992;8.648;2024-01-15T05:03:42;16.95;;;10.35;;
82296;SDS011;71899;51.992;8.648;2024-01-15T05:06:07;24.25;;;8.88;;
82296;SDS011;71899;51.992;8.648;2024-01-15T05:08:33;21.08;;;8.57;;
82296;SDS011;71899;51.992;8.648;2024-01-15T05:10:58;23.08;;;11.10;;
82296;SDS011;71899;51.992;8.648;2024-01-15T05:13:23;23.13;;;9.10;;
82296;SDS011;71899;51.992;8.648;2024-01-15T05:15:49;20.77;;;11.38;;
82296;SDS011;71899;51.992;8.648;2024-01-15T05:18:14;30.00;;;13.25;;
82296;SDS011;71899;51.992;8.648;2024-01-15T05:20:39;26.60;;;10.88;;
82296;SDS011;71899;51.992;8.648;2024-01-15T05:23:04;20.95;;;10.38;;
82296;SDS011;71899;51.992;8.648;2024-01-15T05:25:30;21.50;;;9.50;;
82296;SDS011;71899;51.992;8.648;2024-01-15T05:27:55;18.55;;;9.82;;
82296;SDS011;71899;51.992;8.648;2024-01-15T05:30:20;18.20;;;10.32;;
82296;SDS011;71899;51.992;8.648;2024-01-15T05:32:46;23.83;;;12.93;;
82296;SDS011;71899;51.992;8.648;2024-01-15T05:35:11;33.38;;;11.55;;
82296;SDS011;71899;51.992;8.648;2024-01-15T05:37:38;21.15;;;11.27;;
82296;SDS011;71899;51.992;8.648;2024-01-15T05:40:06;21.55;;;9.85;;
82296;SDS011;71899;51.992;8.648;2024-01-15T05:42:32;26.08;;;11.38;;
82296;SDS011;71899;51.992;8.648;2024-01-15T05:44:57;26.95;;;11.68;;
82296;SDS011;71899;51.992;8.648;2024-01-15T05:47:24;27.80;;;11.30;;
82296;SDS011;71899;51.992;8.648;2024-01-15T05:49:49;22.00;;;9.95;;
82296;SDS011;71899;51.992;8.648;2024-01-15T05:52:15;20.48;;;10.38;;
82296;SDS011;71899;51.992;8.648;2024-01-15T05:54:40;16.65;;;9.73;;
82296;SDS011;71899;51.992;8.648;2024-01-15T05:57:06;23.08;;;9.80;;
82296;SDS011;71899;51.992;8.648;2024-01-15T05:59:31;25.08;;;10.85;;
82296;SDS011;71899;51.992;8.648;2024-01-15T06:01:59;20.88;;;8.38;;
82296;SDS011;71899;51.992;8.648;2024-01-15T06:04:24;17.13;;;9.98;;
82296;SDS011;71899;51.992;8.648;2024-01-15T06:06:49;18.50;;;9.68;;
82296;SDS011;71899;51.992;8.648;2024-01-15T06:09:15;14.02;;;8.13;;
82296;SDS011;71899;51.992;8.648;2024-01-15T06:11:40;18.60;;;8.60;;
82296;SDS011;71899;51.992;8.648;2024-01-15T06:14:05;15.05;;;8.60;;
82296;SDS011;71899;51.992;8.648;2024-01-15T06:16:31;15.48;;;8.73;;
82296;SDS011;71899;51.992;8.648;2024-01-15T06:18:56;23.05;;;9.20;;
82296;SDS011;71899;51.992;8.648;2024-01-15T06:21:21;25.58;;;12.68;;
82296;SDS011;71899;51.992;8.648;2024-01-15T06:23:47;18.52;;;8.50;;
82296;SDS011;71899;51.992;8.648;2024-01-15T06:26:12;15.40;;;9.00;;
82296;SDS011;71899;51.992;8.648;2024-01-15T06:28:37;23.05;;;10.55;;
82296;SDS011;71899;51.992;8.648;2024-01-15T06:31:03;16.73;;;9.25;;
82296;SDS011;71899;51.992;8.648;2024-01-15T06:33:28;22.27;;;10.65;;
82296;SDS011;71899;51.992;8.648;2024-01-15T06:35:54;26.13;;;10.65;;
82296;SDS011;71899;51.992;8.648;2024-01-15T06:38:19;24.27;;;10.32;;
82296;SDS011;71899;51.992;8.648;2024-01-15T06:40:44;16.67;;;9.25;;
82296;SDS011;71899;51.992;8.648;2024-01-15T06:43:10;24.10;;;9.05;;
82296;SDS011;71899;51.992;8.648;2024-01-15T06:45:36;23.73;;;11.63;;
82296;SDS011;71899;51.992;8.648;2024-01-15T06:48:01;24.02;;;11.98;;
82296;SDS011;71899;51.992;8.648;2024-01-15T06:50:27;32.53;;;13.65;;
82296;SDS011;71899;51.992;8.648;2024-01-15T06:52:52;28.38;;;12.70;;
82296;SDS011;71899;51.992;8.648;2024-01-15T06:55:17;21.77;;;10.57;;
82296;SDS011;71899;51.992;8.648;2024-01-15T06:57:43;22.00;;;11.13;;
82296;SDS011;71899;51.992;8.648;2024-01-15T07:00:08;26.42;;;10.52;;
82296;SDS011;71899;51.992;8.648;2024-01-15T07:02:34;23.42;;;10.23;;
82296;SDS011;71899;51.992;8.648;2024-01-15T07:04:59;14.50;;;8.52;;
82296;SDS011;71899;51.992;8.648;2024-01-15T07:07:25;18.60;;;9.38;;
82296;SDS011;71899;51.992;8.648;2024-01-15T07:09:53;15.70;;;10.82;;
82296;SDS011;71899;51.992;8.648;2024-01-15T07:12:19;19.13;;;11.10;;
82296;SDS011;71899;51.992;8.648;2024-01-15T07:14:44;17.35;;;10.63;;
82296;SDS011;71899;51.992;8.648;2024-01-15T07:17:10;23.17;;;10.70;;
82296;SDS011;71899;51.992;8.648;2024-01-15T07:19:35;20.02;;;10.43;;
82296;SDS011;71899;51.992;8.648;2024-01-15T07:22:00;21.95;;;10.75;;
82296;SDS011;71899;51.992;8.648;2024-01-15T07:24:26;18.38;;;11.40;;
82296;SDS011;71899;51.992;8.648;2024-01-15T07:26:51;18.67;;;9.13;;
82296;SDS011;71899;51.992;8.648;2024-01-15T07:29:16;20.05;;;9.75;;
82296;SDS011;71899;51.992;8.648;2024-01-15T07:31:47;24.10;;;10.02;;
82296;SDS011;71899;51.992;8.648;2024-01-15T07:34:13;21.83;;;11.48;;
82296;SDS011;71899;51.992;8.648;2024-01-15T07:36:38;19.13;;;10.65;;
82296;SDS011;71899;51.992;8.648;2024-01-15T07:39:04;22.25;;;10.02;;
82296;SDS011;71899;51.992;8.648;2024-01-15T07:41:29;19.25;;;10.60;;
82296;SDS011;71899;51.992;8.648;2024-01-15T07:43:58;14.38;;;9.77;;
82296;SDS011;71899;51.992;8.648;2024-01-15T07:46:24;22.25;;;8.48;;
82296;SDS011;71899;51.992;8.648;2024-01-15T07:48:53;18.70;;;8.18;;
82296;SDS011;71899;51.992;8.648;2024-01-15T07:51:23;17.83;;;9.38;;
82296;SDS011;71899;51.992;8.648;2024-01-15T07:53:53;14.48;;;8.80;;
82296;SDS011;71899;51.992;8.648;2024-01-15T07:56:22;20.13;;;8.95;;
82296;SDS011;71899;51.992;8.648;2024-01-15T07:58:52;13.70;;;8.95;;
82296;SDS011;71899;51.992;8.648;2024-01-15T08:01:20;16.55;;;10.00;;
82296;SDS011;71899;51.992;8.648;2024-01-15T08:06:28;13.77;;;8.60;;
82296;SDS011;71899;51.992;8.648;2024-01-15T08:08:56;23.55;;;8.88;;
82296;SDS011;71899;51.992;8.648;2024-01-15T08:11:24;22.40;;;8.38;;
82296;SDS011;71899;51.992;8.648;2024-01-15T08:13:55;12.73;;;8.50;;
82296;SDS011;71899;51.992;8.648;2024-01-15T08:16:20;12.55;;;6.78;;
82296;SDS011;71899;51.992;8.648;2024-01-15T08:18:51;19.25;;;7.97;;
82296;SDS011;71899;51.992;8.648;2024-01-15T08:21:16;9.20;;;6.55;;
82296;SDS011;71899;51.992;8.648;2024-01-15T08:23:52;10.70;;;6.72;;
82296;SDS011;71899;51.992;8.648;2024-01-15T08:26:27;15.90;;;7.40;;
82296;SDS011;71899;51.992;8.648;2024-01-15T08:28:58;14.45;;;7.43;;
82296;SDS011;71899;51.992;8.648;2024-01-15T08:31:24;17.60;;;9.30;;
82296;SDS011;71899;51.992;8.648;2024-01-15T08:33:50;17.27;;;7.93;;
82296;SDS011;71899;51.992;8.648;2024-01-15T08:36:22;12.43;;;7.60;;
82296;SDS011;71899;51.992;8.648;2024-01-15T08:38:52;11.93;;;7.05;;
82296;SDS011;71899;51.992;8.648;2024-01-15T08:41:25;12.07;;;6.78;;
82296;SDS011;71899;51.992;8.648;2024-01-15T08:43:59;18.27;;;7.95;;
82296;SDS011;71899;51.992;8.648;2024-01-15T08:46:32;11.32;;;8.43;;
82296;SDS011;71899;51.992;8.648;2024-01-15T08:49:01;10.23;;;8.02;;
82296;SDS011;71899;51.992;8.648;2024-01-15T08:51:29;11.38;;;6.70;;
82296;SDS011;71899;51.992;8.648;2024-01-15T08:54:01;14.35;;;7.22;;
82296;SDS011;71899;51.992;8.648;2024-01-15T08:56:29;7.78;;;5.63;;
82296;SDS011;71899;51.992;8.648;2024-01-15T08:59:05;12.68;;;6.45;;
82296;SDS011;71899;51.992;8.648;2024-01-15T09:01:50;10.65;;;7.28;;
82296;SDS011;71899;51.992;8.648;2024-01-15T09:04:26;8.65;;;6.57;;
82296;SDS011;71899;51.992;8.648;2024-01-15T09:06:54;9.18;;;5.65;;
82296;SDS011;71899;51.992;8.648;2024-01-15T09:09:30;12.45;;;6.95;;
82296;SDS011;71899;51.992;8.648;2024-01-15T09:11:58;9.50;;;6.30;;
82296;SDS011;71899;51.992;8.648;2024-01-15T09:14:24;14.85;;;6.97;;
82296;SDS011;71899;51.992;8.648;2024-01-15T09:16:54;11.13;;;7.05;;
82296;SDS011;71899;51.992;8.648;2024-01-15T09:19:29;9.98;;;6.40;;
82296;SDS011;71899;51.992;8.648;2024-01-15T09:22:00;17.02;;;8.32;;
82296;SDS011;71899;51.992;8.648;2024-01-15T09:24:28;13.45;;;7.47;;
82296;SDS011;71899;51.992;8.648;2024-01-15T09:26:55;15.27;;;6.57;;
82296;SDS011;71899;51.992;8.648;2024-01-15T09:29:20;14.63;;;7.78;;
82296;SDS011;71899;51.992;8.648;2024-01-15T09:31:51;22.52;;;8.13;;
82296;SDS011;71899;51.992;8.648;2024-01-15T09:34:19;11.68;;;7.20;;
82296;SDS011;71899;51.992;8.648;2024-01-15T09:36:55;21.02;;;9.98;;
82296;SDS011;71899;51.992;8.648;2024-01-15T09:42:07;19.90;;;9.20;;
82296;SDS011;71899;51.992;8.648;2024-01-15T09:44:39;14.88;;;9.57;;
82296;SDS011;71899;51.992;8.648;2024-01-15T09:47:06;16.73;;;10.82;;
82296;SDS011;71899;51.992;8.648;2024-01-15T09:49:42;15.68;;;8.88;;
82296;SDS011;71899;51.992;8.648;2024-01-15T09:52:11;11.90;;;8.35;;
82296;SDS011;71899;51.992;8.648;2024-01-15T09:54:40;21.98;;;9.80;;
82296;SDS011;71899;51.992;8.648;2024-01-15T09:57:13;16.40;;;9.35;;
82296;SDS011;71899;51.992;8.648;2024-01-15T09:59:39;14.27;;;7.38;;
82296;SDS011;71899;51.992;8.648;2024-01-15T10:02:11;20.15;;;7.50;;
82296;SDS011;71899;51.992;8.648;2024-01-15T10:07:56;26.08;;;9.55;;
82296;SDS011;71899;51.992;8.648;2024-01-15T10:10:27;14.98;;;8.07;;
82296;SDS011;71899;51.992;8.648;2024-01-15T10:13:00;13.00;;;8.05;;
82296;SDS011;71899;51.992;8.648;2024-01-15T10:15:29;11.60;;;7.85;;
82296;SDS011;71899;51.992;8.648;2024-01-15T10:18:00;14.60;;;7.70;;
82296;SDS011;71899;51.992;8.648;2024-01-15T10:20:27;19.25;;;7.45;;
82296;SDS011;71899;51.992;8.648;2024-01-15T10:22:58;8.98;;;5.25;;
82296;SDS011;71899;51.992;8.648;2024-01-15T10:25:24;11.13;;;6.00;;
82296;SDS011;71899;51.992;8.648;2024-01-15T10:28:03;12.15;;;5.75;;
82296;SDS011;71899;51.992;8.648;2024-01-15T10:30:30;11.73;;;6.25;;
82296;SDS011;71899;51.992;8.648;2024-01-15T10:33:02;8.10;;;5.57;;
82296;SDS011;71899;51.992;8.648;2024-01-15T10:35:35;9.85;;;6.80;;
82296;SDS011;71899;51.992;8.648;2024-01-15T10:38:10;13.00;;;6.20;;
82296;SDS011;71899;51.992;8.648;2024-01-15T10:40:35;12.82;;;7.63;;
82296;SDS011;71899;51.992;8.648;2024-01-15T10:43:01;9.40;;;5.93;;
82296;SDS011;71899;51.992;8.648;2024-01-15T10:45:30;15.02;;;5.60;;
82296;SDS011;71899;51.992;8.648;2024-01-15T10:47:59;8.25;;;5.07;;
82296;SDS011;71899;51.992;8.648;2024-01-15T10:50:30;14.73;;;6.25;;
82296;SDS011;71899;51.992;8.648;2024-01-15T10:53:00;7.53;;;4.63;;
82296;SDS011;71899;51.992;8.648;2024-01-15T10:55:31;7.45;;;4.15;;
82296;SDS011;71899;51.992;8.648;2024-01-15T10:58:06;13.85;;;4.38;;
82296;SDS011;71899;51.992;8.648;2024-01-15T11:00:37;7.45;;;4.70;;
82296;SDS011;71899;51.992;8.648;2024-01-15T11:03:09;7.80;;;5.60;;
82296;SDS011;71899;51.992;8.648;2024-01-15T11:05:50;14.55;;;5.03;;
82296;SDS011;71899;51.992;8.648;2024-01-15T11:08:18;8.65;;;4.07;;
82296;SDS011;71899;51.992;8.648;2024-01-15T11:10:45;9.90;;;4.95;;
82296;SDS011;71899;51.992;8.648;2024-01-15T11:13:19;5.78;;;3.40;;
82296;SDS011;71899;51.992;8.648;2024-01-15T11:16:02;9.90;;;5.35;;
82296;SDS011;71899;51.992;8.648;2024-01-15T11:18:30;16.10;;;5.20;;
82296;SDS011;71899;51.992;8.648;2024-01-15T11:23:49;11.13;;;5.07;;
82296;SDS011;71899;51.992;8.648;2024-01-15T11:28:58;8.95;;;4.55;;
82296;SDS011;71899;51.992;8.648;2024-01-15T11:31:29;7.72;;;4.30;;
82296;SDS011;71899;51.992;8.648;2024-01-15T11:34:05;7.60;;;4.63;;
82296;SDS011;71899;51.992;8.648;2024-01-15T11:42:00;11.63;;;6.30;;
82296;SDS011;71899;51.992;8.648;2024-01-15T11:44:29;13.68;;;4.53;;
82296;SDS011;71899;51.992;8.648;2024-01-15T11:47:04;7.43;;;5.28;;
82296;SDS011;71899;51.992;8.648;2024-01-15T11:52:17;7.22;;;3.78;;
82296;SDS011;71899;51.992;8.648;2024-01-15T11:57:45;5.97;;;3.47;;
82296;SDS011;71899;51.992;8.648;2024-01-15T12:00:21;7.40;;;4.47;;
82296;SDS011;71899;51.992;8.648;2024-01-15T12:02:51;9.63;;;5.97;;
82296;SDS011;71899;51.992;8.648;2024-01-15T12:05:19;10.48;;;4.05;;
82296;SDS011;71899;51.992;8.648;2024-01-15T12:07:48;10.63;;;4.07;;
82296;SDS011;71899;51.992;8.648;2024-01-15T12:10:19;14.35;;;5.00;;
82296;SDS011;71899;51.992;8.648;2024-01-15T12:13:03;7.40;;;4.68;;
82296;SDS011;71899;51.992;8.648;2024-01-15T12:15:35;7.72;;;3.50;;
82296;SDS011;71899;51.992;8.648;2024-01-15T12:18:02;7.53;;;4.80;;
82296;SDS011;71899;51.992;8.648;2024-01-15T12:20:31;13.32;;;5.13;;
82296;SDS011;71899;51.992;8.648;2024-01-15T12:23:02;9.40;;;4.38;;
82296;SDS011;71899;51.992;8.648;2024-01-15T12:25:29;9.38;;;4.75;;
82296;SDS011;71899;51.992;8.648;2024-01-15T12:28:00;10.38;;;4.47;;
82296;SDS011;71899;51.992;8.648;2024-01-15T12:30:30;7.43;;;4.35;;
82296;SDS011;71899;51.992;8.648;2024-01-15T12:33:05;6.82;;;4.43;;
82296;SDS011;71899;51.992;8.648;2024-01-15T12:35:32;9.68;;;5.22;;
82296;SDS011;71899;51.992;8.648;2024-01-15T12:38:02;8.20;;;3.75;;
82296;SDS011;71899;51.992;8.648;2024-01-15T12:40:31;7.32;;;3.80;;
82296;SDS011;71899;51.992;8.648;2024-01-15T12:43:01;10.38;;;3.55;;
82296;SDS011;71899;51.992;8.648;2024-01-15T12:45:26;8.82;;;3.70;;
82296;SDS011;71899;51.992;8.648;2024-01-15T12:47:52;6.55;;;3.05;;
82296;SDS011;71899;51.992;8.648;2024-01-15T12:50:18;6.95;;;3.03;;
82296;SDS011;71899;51.992;8.648;2024-01-15T12:52:47;7.80;;;3.13;;
82296;SDS011;71899;51.992;8.648;2024-01-15T12:55:15;7.55;;;2.92;;
82296;SDS011;71899;51.992;8.648;2024-01-15T12:57:41;9.25;;;3.30;;
82296;SDS011;71899;51.992;8.648;2024-01-15T13:00:07;7.97;;;3.78;;
82296;SDS011;71899;51.992;8.648;2024-01-15T13:02:37;12.07;;;3.30;;
82296;SDS011;71899;51.992;8.648;2024-01-15T13:05:07;8.05;;;3.53;;
82296;SDS011;71899;51.992;8.648;2024-01-15T13:07:34;4.55;;;2.25;;
82296;SDS011;71899;51.992;8.648;2024-01-15T13:09:59;6.68;;;3.22;;
82296;SDS011;71899;51.992;8.648;2024-01-15T13:12:28;10.00;;;2.75;;
82296;SDS011;71899;51.992;8.648;2024-01-15T13:14:54;6.93;;;3.33;;
82296;SDS011;71899;51.992;8.648;2024-01-15T13:17:20;6.75;;;2.85;;
82296;SDS011;71899;51.992;8.648;2024-01-15T13:19:50;10.45;;;4.05;;
82296;SDS011;71899;51.992;8.648;2024-01-15T13:22:15;16.98;;;4.82;;
82296;SDS011;71899;51.992;8.648;2024-01-15T13:24:41;7.47;;;3.63;;
82296;SDS011;71899;51.992;8.648;2024-01-15T13:27:08;5.45;;;3.33;;
82296;SDS011;71899;51.992;8.648;2024-01-15T13:29:38;6.32;;;3.08;;
82296;SDS011;71899;51.992;8.648;2024-01-15T13:32:04;4.18;;;2.47;;
82296;SDS011;71899;51.992;8.648;2024-01-15T13:34:32;10.35;;;3.95;;
82296;SDS011;71899;51.992;8.648;2024-01-15T13:36:58;7.07;;;3.17;;
82296;SDS011;71899;51.992;8.648;2024-01-15T13:39:23;5.55;;;3.70;;
82296;SDS011;71899;51.992;8.648;2024-01-15T13:41:49;8.07;;;3.10;;
82296;SDS011;71899;51.992;8.648;2024-01-15T13:44:17;11.30;;;3.60;;
82296;SDS011;71899;51.992;8.648;2024-01-15T13:46:43;6.82;;;4.10;;
82296;SDS011;71899;51.992;8.648;2024-01-15T13:49:09;6.57;;;3.70;;
82296;SDS011;71899;51.992;8.648;2024-01-15T13:51:35;4.10;;;3.08;;
82296;SDS011;71899;51.992;8.648;2024-01-15T13:54:01;9.32;;;3.03;;
82296;SDS011;71899;51.992;8.648;2024-01-15T13:56:29;9.38;;;3.65;;
82296;SDS011;71899;51.992;8.648;2024-01-15T13:59:03;5.03;;;3.00;;
82296;SDS011;71899;51.992;8.648;2024-01-15T14:01:31;9.48;;;3.28;;
82296;SDS011;71899;51.992;8.648;2024-01-15T14:04:00;5.53;;;3.00;;
82296;SDS011;71899;51.992;8.648;2024-01-15T14:06:28;9.38;;;2.97;;
82296;SDS011;71899;51.992;8.648;2024-01-15T14:09:06;10.60;;;3.80;;
82296;SDS011;71899;51.992;8.648;2024-01-15T14:11:35;5.32;;;2.50;;
82296;SDS011;71899;51.992;8.648;2024-01-15T14:14:11;8.45;;;3.47;;
82296;SDS011;71899;51.992;8.648;2024-01-15T14:16:36;4.45;;;2.65;;
82296;SDS011;71899;51.992;8.648;2024-01-15T14:19:02;3.75;;;2.65;;
82296;SDS011;71899;51.992;8.648;2024-01-15T14:21:27;8.75;;;2.60;;
82296;SDS011;71899;51.992;8.648;2024-01-15T14:23:53;5.18;;;2.63;;
82296;SDS011;71899;51.992;8.648;2024-01-15T14:26:18;4.93;;;3.38;;
82296;SDS011;71899;51.992;8.648;2024-01-15T14:28:43;4.60;;;3.40;;
82296;SDS011;71899;51.992;8.648;2024-01-15T14:31:08;3.67;;;2.30;;
82296;SDS011;71899;51.992;8.648;2024-01-15T14:33:34;3.63;;;3.17;;
82296;SDS011;71899;51.992;8.648;2024-01-15T14:35:59;5.43;;;3.75;;
82296;SDS011;71899;51.992;8.648;2024-01-15T14:38:25;5.07;;;3.70;;
82296;SDS011;71899;51.992;8.648;2024-01-15T14:40:50;11.85;;;3.58;;
82296;SDS011;71899;51.992;8.648;2024-01-15T14:43:15;5.03;;;3.78;;
82296;SDS011;71899;51.992;8.648;2024-01-15T14:45:41;11.27;;;3.95;;
82296;SDS011;71899;51.992;8.648;2024-01-15T14:48:06;5.75;;;4.45;;
82296;SDS011;71899;51.992;8.648;2024-01-15T14:50:31;10.65;;;4.40;;
82296;SDS011;71899;51.992;8.648;2024-01-15T14:52:57;6.35;;;3.13;;
82296;SDS011;71899;51.992;8.648;2024-01-15T14:55:22;4.07;;;2.88;;
82296;SDS011;71899;51.992;8.648;2024-01-15T14:57:48;11.40;;;3.83;;